Time;durP1;ratioP1;P1;durP2;ratioP2;P2;SDS_P1;SDS_P2;PMS_P1;PMS_P2;Temp;Humidity;BMP_temperature;BMP_pressure;BME280_temperature;BME280_humidity;BME280_pressure;Samples;Min_cycle;Max_cycle;Signal;HPM_P1;HPM_P2
2022/01/28 00:00:49;;;;;;;10.00;9.70;;;3.20;99.90;;;;;;6388790;22;20188;-83
2022/01/28 00:06:01;;;;;;;10.00;9.70;;;3.20;99.90;;;;;;6382897;22;20191;-79
2022/01/28 00:08:29;;;;;;;9.80;9.50;;;3.20;99.90;;;;;;6386071;22;20184;-79
2022/01/28 00:13:50;;;;;;;9.20;8.90;;;3.10;99.90;;;;;;6385335;22;20210;-81
2022/01/28 00:38:29;;;;;;;9.80;9.50;;;3.00;99.90;;;;;;6386302;22;20206;-79
2022/01/28 00:40:58;;;;;;;9.70;9.40;;;3.00;99.90;;;;;;6386064;22;20199;-80
2022/01/28 00:43:26;;;;;;;9.87;9.57;;;3.00;99.90;;;;;;6385557;22;20199;-79
2022/01/28 00:45:55;;;;;;;9.70;9.40;;;3.00;99.90;;;;;;6385933;22;20211;-79
2022/01/28 00:48:28;;;;;;;9.70;9.40;;;3.10;99.90;;;;;;6391449;22;20471;-79
2022/01/28 00:50:57;;;;;;;8.73;8.53;;;3.10;99.90;;;;;;6388497;22;20192;-79
2022/01/28 00:53:27;;;;;;;8.57;8.37;;;3.00;99.90;;;;;;6388306;22;20195;-80
2022/01/28 00:55:57;;;;;;;9.13;8.87;;;3.10;99.90;;;;;;6385483;22;20195;-79
2022/01/28 00:58:25;;;;;;;8.90;8.70;;;3.10;99.90;;;;;;6390694;22;20196;-79
2022/01/28 01:00:57;;;;;;;8.83;8.63;;;3.10;99.90;;;;;;6403173;22;20217;-78
2022/01/28 01:03:25;;;;;;;8.83;8.63;;;3.10;99.90;;;;;;6397758;22;20214;-79
2022/01/28 01:05:57;;;;;;;9.53;9.23;;;3.10;99.90;;;;;;6387165;22;20248;-79
2022/01/28 01:08:26;;;;;;;9.70;9.40;;;3.10;99.90;;;;;;6386553;22;20200;-80
2022/01/28 01:10:54;;;;;;;10.00;9.70;;;3.00;99.90;;;;;;6386341;22;20195;-79
2022/01/28 01:13:22;;;;;;;9.73;9.43;;;3.00;99.90;;;;;;6387213;22;20195;-79
2022/01/28 01:15:56;;;;;;;9.73;9.43;;;3.00;99.90;;;;;;6390438;22;20203;-80
2022/01/28 01:18:29;;;;;;;9.97;9.67;;;3.00;99.90;;;;;;6390383;22;20672;-78
2022/01/28 01:21:04;;;;;;;10.00;9.70;;;3.00;99.90;;;;;;6390299;22;20245;-78
2022/01/28 01:23:35;;;;;;;9.63;9.33;;;2.90;99.90;;;;;;6390425;22;20194;-79
2022/01/28 01:26:10;;;;;;;8.70;8.50;;;3.00;99.90;;;;;;6388376;22;20222;-79
2022/01/28 01:28:41;;;;;;;9.10;8.80;;;3.00;99.90;;;;;;6388459;22;20191;-79
2022/01/28 01:31:18;;;;;;;8.77;8.57;;;3.00;99.90;;;;;;6387939;22;20238;-79
2022/01/28 01:33:55;;;;;;;9.00;8.80;;;3.00;99.90;;;;;;6386448;22;20199;-79
2022/01/28 01:36:23;;;;;;;9.30;9.00;;;3.10;99.90;;;;;;6384643;22;20187;-79
2022/01/28 01:38:53;;;;;;;9.40;9.10;;;3.10;99.90;;;;;;6384132;22;20196;-79
2022/01/28 01:41:31;;;;;;;8.93;8.70;;;3.10;99.90;;;;;;6384947;22;20215;-78
2022/01/28 01:44:03;;;;;;;9.37;9.07;;;3.10;99.90;;;;;;6384279;22;20227;-78
2022/01/28 01:46:44;;;;;;;9.07;8.77;;;3.10;99.90;;;;;;6383576;22;20219;-79
2022/01/28 01:52:04;;;;;;;9.20;8.90;;;3.20;99.90;;;;;;6383864;22;20187;-79
2022/01/28 01:54:38;;;;;;;9.20;8.90;;;3.20;99.90;;;;;;6383518;22;20214;-79
2022/01/28 01:57:10;;;;;;;9.20;8.90;;;3.20;99.90;;;;;;6382589;22;20192;-78
2022/01/28 01:59:39;;;;;;;9.10;8.80;;;3.20;99.90;;;;;;6382910;22;20195;-78
2022/01/28 02:02:08;;;;;;;9.30;9.00;;;3.30;99.90;;;;;;6383119;22;20195;-80
2022/01/28 02:04:36;;;;;;;9.23;8.93;;;3.20;99.90;;;;;;6382988;22;20215;-78
2022/01/28 02:07:05;;;;;;;9.40;9.10;;;3.30;99.90;;;;;;6383612;22;20245;-78
2022/01/28 02:09:35;;;;;;;9.93;9.63;;;3.30;99.90;;;;;;6383136;22;20203;-79
2022/01/28 02:12:03;;;;;;;9.87;9.57;;;3.30;99.90;;;;;;6382862;22;20281;-77
2022/01/28 02:14:31;;;;;;;9.90;9.60;;;3.30;99.90;;;;;;6382969;22;20195;-78
2022/01/28 02:16:59;;;;;;;9.30;9.00;;;3.30;99.90;;;;;;6383271;22;20273;-78
2022/01/28 02:19:28;;;;;;;9.13;8.83;;;3.30;99.90;;;;;;6383085;22;20229;-77
2022/01/28 02:21:57;;;;;;;8.80;8.60;;;3.30;99.90;;;;;;6384371;22;20239;-78
2022/01/28 02:24:30;;;;;;;9.20;8.90;;;3.40;99.90;;;;;;6387014;22;20195;-78
2022/01/28 02:26:58;;;;;;;9.40;9.10;;;3.40;99.90;;;;;;6384942;22;20282;-78
2022/01/28 02:29:30;;;;;;;10.00;9.70;;;3.30;99.90;;;;;;6385025;22;20203;-78
2022/01/28 02:31:59;;;;;;;9.77;9.47;;;3.30;99.90;;;;;;6394116;22;20191;-77
2022/01/28 02:34:29;;;;;;;10.13;9.83;;;3.30;99.90;;;;;;6400092;22;20287;-78
2022/01/28 02:36:59;;;;;;;10.00;9.70;;;3.30;99.90;;;;;;6396922;22;20217;-77
2022/01/28 02:39:27;;;;;;;9.40;9.10;;;3.30;99.90;;;;;;6390357;22;20232;-78
2022/01/28 02:42:02;;;;;;;9.20;8.90;;;3.30;99.90;;;;;;6401290;22;20196;-78
2022/01/28 02:44:44;;;;;;;9.10;8.80;;;3.20;99.90;;;;;;6403460;22;20203;-78
2022/01/28 02:47:15;;;;;;;9.00;8.80;;;3.20;99.90;;;;;;6399508;22;20200;-77
2022/01/28 02:49:44;;;;;;;9.17;8.87;;;3.20;99.90;;;;;;6395733;22;20198;-79
2022/01/28 02:52:22;;;;;;;9.60;9.30;;;3.10;99.90;;;;;;6397212;22;20255;-78
2022/01/28 02:54:50;;;;;;;9.50;9.20;;;3.10;99.90;;;;;;6401533;22;20195;-78
2022/01/28 02:57:24;;;;;;;9.67;9.37;;;3.10;99.90;;;;;;6401570;22;20187;-78
2022/01/28 02:59:52;;;;;;;9.63;9.33;;;3.10;99.90;;;;;;6401739;22;20176;-78
2022/01/28 03:02:20;;;;;;;9.50;9.20;;;3.10;99.90;;;;;;6399145;22;20197;-79
2022/01/28 03:05:07;;;;;;;9.70;9.40;;;3.10;99.90;;;;;;6388217;22;20199;-79
2022/01/28 03:07:36;;;;;;;9.70;9.40;;;3.10;99.90;;;;;;6387331;22;20265;-79
2022/01/28 03:10:27;;;;;;;9.93;9.63;;;3.10;99.90;;;;;;6386063;22;20207;-78
2022/01/28 03:13:17;;;;;;;9.70;9.40;;;3.10;99.90;;;;;;6386204;22;20187;-79
2022/01/28 03:15:51;;;;;;;9.70;9.40;;;3.10;99.90;;;;;;6387686;22;20195;-79
2022/01/28 03:18:22;;;;;;;9.80;9.50;;;3.10;99.90;;;;;;6396999;22;20183;-78
2022/01/28 03:21:01;;;;;;;9.70;9.40;;;3.10;99.90;;;;;;6391358;22;20209;-78
2022/01/28 03:23:36;;;;;;;9.90;9.60;;;3.10;99.90;;;;;;6403430;22;20181;-78
2022/01/28 03:26:04;;;;;;;10.10;9.80;;;3.10;99.90;;;;;;6397079;22;20187;-79
2022/01/28 03:28:31;;;;;;;9.67;9.37;;;3.10;99.90;;;;;;6390981;22;20195;-79
2022/01/28 03:30:59;;;;;;;9.80;9.50;;;3.00;99.90;;;;;;6399876;22;20188;-78
2022/01/28 03:33:27;;;;;;;9.80;9.50;;;3.00;99.90;;;;;;6401521;22;20199;-78
2022/01/28 03:35:55;;;;;;;9.80;9.50;;;3.00;99.90;;;;;;6393601;22;20249;-78
2022/01/28 03:38:23;;;;;;;9.87;9.57;;;3.10;99.90;;;;;;6386375;22;20184;-79
2022/01/28 03:40:55;;;;;;;9.87;9.57;;;3.10;99.90;;;;;;6386989;22;20203;-79
2022/01/28 03:43:23;;;;;;;9.90;9.60;;;3.00;99.90;;;;;;6386088;22;20184;-78
2022/01/28 03:45:51;;;;;;;10.10;9.80;;;3.00;99.90;;;;;;6385763;22;20261;-78
2022/01/28 03:48:19;;;;;;;9.83;9.53;;;2.90;99.90;;;;;;6385993;22;20203;-79
2022/01/28 03:50:46;;;;;;;10.07;9.77;;;2.90;99.90;;;;;;6385500;22;20222;-79
2022/01/28 03:53:14;;;;;;;10.10;9.80;;;2.90;99.90;;;;;;6384723;22;20199;-78
2022/01/28 03:55:42;;;;;;;10.07;9.77;;;2.90;99.90;;;;;;6385562;22;20199;-79
2022/01/28 03:58:11;;;;;;;10.17;9.87;;;2.90;99.90;;;;;;6384441;22;20265;-79
2022/01/28 04:00:39;;;;;;;10.00;9.70;;;2.90;99.90;;;;;;6384989;22;20209;-79
2022/01/28 04:03:10;;;;;;;10.00;9.70;;;2.90;99.90;;;;;;6384297;22;20245;-79
2022/01/28 04:11:28;;;;;;;9.87;9.57;;;3.00;99.90;;;;;;6384352;22;20188;-78
2022/01/28 04:14:06;;;;;;;9.70;9.40;;;3.00;99.90;;;;;;6384284;22;20199;-78
2022/01/28 04:17:19;;;;;;;9.60;9.30;;;3.00;99.90;;;;;;6384163;22;20247;-79
2022/01/28 04:19:21;;;;;;;9.90;9.60;;;2.90;99.90;;;;;;6384379;22;20226;-78
2022/01/28 04:21:49;;;;;;;9.93;9.63;;;2.90;99.90;;;;;;6384515;22;20253;-78
2022/01/28 04:24:17;;;;;;;9.60;9.30;;;2.80;99.90;;;;;;6384616;22;20196;-78
2022/01/28 04:26:45;;;;;;;10.07;9.77;;;2.80;99.90;;;;;;6384011;22;20211;-79
2022/01/28 04:29:15;;;;;;;9.97;9.67;;;2.80;99.90;;;;;;6384591;22;20187;-78
2022/01/28 04:31:46;;;;;;;10.00;9.70;;;2.80;99.90;;;;;;6384629;22;20207;-79
2022/01/28 04:34:15;;;;;;;9.80;9.50;;;2.80;99.90;;;;;;6384872;22;20255;-79
2022/01/28 04:36:52;;;;;;;10.00;9.70;;;2.80;99.90;;;;;;6384718;22;20199;-79
2022/01/28 04:39:26;;;;;;;10.00;9.70;;;2.80;99.90;;;;;;6384838;22;20191;-78
2022/01/28 04:42:02;;;;;;;9.90;9.60;;;2.70;99.90;;;;;;6384199;22;20183;-79
2022/01/28 04:44:40;;;;;;;10.10;9.80;;;2.70;99.90;;;;;;6384387;22;20211;-79
2022/01/28 04:47:14;;;;;;;9.60;9.30;;;2.70;99.90;;;;;;6385266;22;20199;-78
2022/01/28 04:49:53;;;;;;;9.47;9.17;;;2.80;99.90;;;;;;6384439;22;20197;-79
2022/01/28 04:52:49;;;;;;;9.63;9.33;;;2.70;99.90;;;;;;6385483;22;20204;-79
2022/01/28 04:55:31;;;;;;;9.50;9.20;;;2.80;99.90;;;;;;6386686;22;20251;-79
2022/01/28 04:58:11;;;;;;;9.57;9.27;;;2.80;99.90;;;;;;6393220;22;20207;-78
2022/01/28 05:00:51;;;;;;;9.70;9.40;;;2.80;99.90;;;;;;6399666;22;20205;-79
2022/01/28 05:03:37;;;;;;;9.87;9.57;;;2.80;99.90;;;;;;6400039;22;20179;-78
2022/01/28 05:09:31;;;;;;;9.80;9.50;;;2.80;99.90;;;;;;6403097;22;20175;-77
2022/01/28 05:15:11;;;;;;;9.77;9.47;;;2.80;99.90;;;;;;6402917;22;20179;-78
2022/01/28 05:24:03;;;;;;;9.20;8.90;;;2.80;99.90;;;;;;6395578;22;20176;-78
2022/01/28 05:26:32;;;;;;;8.47;8.27;;;2.80;99.90;;;;;;6387619;22;20196;-78
2022/01/28 05:29:01;;;;;;;8.80;8.60;;;2.80;99.90;;;;;;6386507;22;20191;-79
2022/01/28 05:31:28;;;;;;;8.80;8.60;;;2.80;99.90;;;;;;6388761;22;20221;-78
2022/01/28 05:33:58;;;;;;;8.47;8.27;;;2.80;99.90;;;;;;6394612;22;20203;-78
2022/01/28 05:36:26;;;;;;;8.47;8.27;;;2.70;99.90;;;;;;6389563;22;20180;-79
2022/01/28 05:38:54;;;;;;;8.70;8.50;;;2.70;99.90;;;;;;6384538;22;20192;-79
2022/01/28 05:41:22;;;;;;;8.77;8.57;;;2.70;99.90;;;;;;6392628;22;20203;-79
2022/01/28 05:46:44;;;;;;;8.80;8.60;;;2.80;99.90;;;;;;6378616;22;20211;-84
2022/01/28 05:50:14;;;;;;;8.80;8.60;;;2.80;99.90;;;;;;6382785;22;20195;-83
2022/01/28 05:53:11;;;;;;;9.00;8.80;;;2.80;99.90;;;;;;6382207;22;20714;-83
2022/01/28 05:55:50;;;;;;;9.30;9.00;;;2.80;99.90;;;;;;6367171;22;20195;-83
2022/01/28 05:58:38;;;;;;;9.20;8.90;;;2.70;99.90;;;;;;6384747;22;20191;-83
2022/01/28 06:01:16;;;;;;;9.00;8.80;;;2.70;99.90;;;;;;6384219;22;20195;-83
2022/01/28 06:04:12;;;;;;;8.87;8.67;;;2.70;99.90;;;;;;6382994;22;20191;-83
2022/01/28 06:07:41;;;;;;;9.43;9.13;;;2.70;99.90;;;;;;6382690;22;20203;-83
2022/01/28 06:13:51;;;;;;;8.93;8.73;;;2.70;99.90;;;;;;6379505;22;20199;-83
2022/01/28 06:16:59;;;;;;;9.07;8.80;;;2.60;99.90;;;;;;6381229;22;20314;-83
2022/01/28 06:20:07;;;;;;;8.80;8.60;;;2.60;99.90;;;;;;6381586;22;20191;-83
2022/01/28 06:29:16;;;;;;;9.33;9.03;;;2.60;99.90;;;;;;6379453;22;20198;-84
2022/01/28 06:32:09;;;;;;;8.70;8.50;;;2.60;99.90;;;;;;6368387;22;20188;-83
2022/01/28 06:35:28;;;;;;;8.97;8.77;;;2.70;99.90;;;;;;6383022;22;20199;-83
2022/01/28 06:44:37;;;;;;;9.80;9.50;;;2.60;99.90;;;;;;6383168;22;20226;-84
2022/01/28 06:47:34;;;;;;;;;;;;;;;;;;;;;
2022/01/28 06:50:27;;;;;;;9.83;9.53;;;2.60;99.90;;;;;;6335987;22;20204;-83
2022/01/28 06:53:22;;;;;;;9.70;9.40;;;2.60;99.90;;;;;;6358904;22;20173;-82
2022/01/28 06:56:07;;;;;;;9.87;9.57;;;2.60;99.90;;;;;;6372644;22;20200;-82
2022/01/28 06:59:04;;;;;;;9.60;9.30;;;2.60;99.90;;;;;;6356965;22;20204;-83
2022/01/28 07:01:48;;;;;;;9.80;9.50;;;2.60;99.90;;;;;;6268581;22;20287;-83
2022/01/28 07:04:24;;;;;;;9.40;9.10;;;2.60;99.90;;;;;;6353677;22;20199;-83
2022/01/28 07:10:05;;;;;;;9.80;9.50;;;2.60;99.90;;;;;;6347102;22;20200;-84
2022/01/28 07:13:22;;;;;;;9.13;8.83;;;2.60;99.90;;;;;;6350201;22;20195;-83
2022/01/28 07:45:14;;;;;;;9.70;9.40;;;2.30;99.90;;;;;;5912094;24;20344;-82
2022/01/28 07:48:33;;;;;;;9.53;9.23;;;2.40;99.90;;;;;;5917628;24;20214;-86
2022/01/28 07:58:30;;;;;;;9.80;9.50;;;2.60;99.90;;;;;;5926441;23;20208;-80
2022/01/28 08:01:02;;;;;;;9.60;9.30;;;2.60;99.90;;;;;;6020809;23;20216;-80
2022/01/28 08:03:31;;;;;;;9.70;9.40;;;2.60;99.90;;;;;;6144794;23;20215;-80
2022/01/28 08:06:48;;;;;;;9.70;9.40;;;2.60;99.90;;;;;;6171807;22;20985;-81
2022/01/28 08:09:53;;;;;;;10.00;9.70;;;2.70;99.90;;;;;;6265382;22;20213;-82
2022/01/28 08:12:22;;;;;;;10.00;9.70;;;2.70;99.90;;;;;;6135648;23;20200;-82
2022/01/28 08:26:33;;;;;;;9.90;9.60;;;2.90;99.90;;;;;;6062291;23;20206;-82
2022/01/28 08:36:24;;;;;;;10.00;9.70;;;2.90;99.90;;;;;;6080213;23;20287;-81
2022/01/28 08:48:00;;;;;;;10.17;9.87;;;2.90;99.90;;;;;;6064014;23;20195;-84
2022/01/28 08:54:06;;;;;;;9.80;9.50;;;3.30;99.90;;;;;;6223316;22;20193;-82
2022/01/28 08:56:37;;;;;;;10.03;9.73;;;3.30;99.90;;;;;;6287937;22;20204;-83
2022/01/28 08:59:46;;;;;;;10.17;9.87;;;3.40;99.90;;;;;;6285400;22;20204;-82
2022/01/28 09:05:14;;;;;;;10.23;9.93;;;3.40;99.90;;;;;;6260697;22;20197;-81
2022/01/28 09:08:06;;;;;;;9.27;9.03;;;3.50;99.90;;;;;;6284034;22;20204;-80
2022/01/28 09:13:48;;;;;;;9.87;9.57;;;3.60;99.90;;;;;;6281672;22;20210;-83
2022/01/28 09:22:17;;;;;;;9.60;9.30;;;3.60;99.90;;;;;;6280296;22;20194;-85
2022/01/28 09:32:57;;;;;;;10.43;10.13;;;3.70;99.90;;;;;;6105243;23;20305;-82
2022/01/28 09:36:39;;;;;;;;;;;;;;;;;;;;;
2022/01/28 10:01:56;;;;;;;9.80;9.50;;;3.70;99.90;;;;;;6105305;23;20201;-83
2022/01/28 10:05:52;;;;;;;;;;;;;;;;;;;;;
2022/01/28 10:22:28;;;;;;;10.13;9.83;;;4.00;99.90;;;;;;6345698;22;20230;-83
2022/01/28 10:32:35;;;;;;;10.07;9.77;;;4.10;99.90;;;;;;6303937;22;20231;-83
2022/01/28 10:38:10;;;;;;;;;;;;;;;;;;;;;
2022/01/28 10:41:20;;;;;;;9.50;9.20;;;3.90;99.90;;;;;;6320791;22;20236;-83
2022/01/28 10:44:44;;;;;;;9.60;9.30;;;3.90;99.90;;;;;;6321775;22;20196;-83
2022/01/28 10:48:26;;;;;;;9.57;9.27;;;3.90;99.90;;;;;;6312531;22;20212;-82
2022/01/28 10:55:12;;;;;;;9.70;9.40;;;3.90;99.90;;;;;;6184580;22;20220;-83
2022/01/28 10:58:31;;;;;;;;;;;;;;;;;;;;;
2022/01/28 11:01:34;;;;;;;9.53;9.23;;;3.90;99.90;;;;;;6242793;22;20227;-83
2022/01/28 11:08:00;;;;;;;9.53;9.23;;;3.90;99.90;;;;;;6290754;22;20233;-83
2022/01/28 11:11:23;;;;;;;9.77;9.47;;;3.80;99.90;;;;;;6292263;22;20198;-83
2022/01/28 11:17:20;;;;;;;;;;;;;;;;;;;;;
2022/01/28 11:20:36;;;;;;;9.13;8.87;;;3.90;99.90;;;;;;6286809;22;20260;-84
2022/01/28 11:24:05;;;;;;;9.47;9.17;;;3.90;99.90;;;;;;6291801;22;20208;-83
2022/01/28 11:38:15;;;;;;;9.43;9.13;;;4.10;99.90;;;;;;6270024;22;20194;-83
2022/01/28 11:41:30;;;;;;;9.40;9.10;;;4.10;99.90;;;;;;6275502;22;20200;-83
2022/01/28 11:44:26;;;;;;;;;;;;;;;;;;;;;
2022/01/28 11:47:02;;;;;;;9.20;8.90;;;4.10;99.90;;;;;;6309789;22;20257;-78
2022/01/28 11:49:30;;;;;;;9.60;9.30;;;4.20;99.90;;;;;;6327265;22;20203;-80
2022/01/28 11:51:58;;;;;;;9.33;9.03;;;4.20;99.90;;;;;;6327557;22;20220;-79
2022/01/28 11:54:38;;;;;;;10.00;9.70;;;4.20;99.90;;;;;;6326643;22;20251;-79
2022/01/28 11:57:26;;;;;;;9.53;9.23;;;4.20;99.90;;;;;;6303618;22;20291;-78
2022/01/28 12:00:21;;;;;;;9.50;9.20;;;4.20;99.90;;;;;;6290586;22;20221;-77
2022/01/28 12:02:52;;;;;;;9.13;8.83;;;4.20;99.90;;;;;;6289250;22;20720;-78
2022/01/28 12:05:52;;;;;;;9.40;9.10;;;4.30;99.90;;;;;;6289931;22;20194;-79
2022/01/28 12:08:22;;;;;;;9.30;9.00;;;4.30;99.90;;;;;;6290223;22;20201;-80
2022/01/28 12:10:51;;;;;;;9.40;9.10;;;4.30;99.90;;;;;;6288879;22;20270;-80
2022/01/28 12:13:32;;;;;;;9.20;8.90;;;4.30;99.90;;;;;;6287866;22;20228;-79
2022/01/28 12:16:13;;;;;;;9.40;9.10;;;4.30;99.90;;;;;;6288813;22;20208;-80
2022/01/28 12:18:56;;;;;;;9.57;9.27;;;4.30;99.90;;;;;;6288191;22;20236;-79
2022/01/28 12:21:27;;;;;;;9.43;9.13;;;4.30;99.90;;;;;;6288330;22;20190;-79
2022/01/28 12:24:17;;;;;;;9.73;9.43;;;4.30;99.90;;;;;;6286618;22;20196;-80
2022/01/28 12:27:21;;;;;;;9.80;9.50;;;4.40;99.90;;;;;;6286059;22;20208;-77
2022/01/28 12:29:56;;;;;;;9.87;9.57;;;4.40;99.90;;;;;;6285365;22;20190;-78
2022/01/28 12:32:25;;;;;;;9.70;9.40;;;4.50;99.90;;;;;;6287783;22;20188;-80
2022/01/28 12:34:54;;;;;;;9.77;9.47;;;4.40;99.90;;;;;;6287000;22;20236;-79
2022/01/28 12:37:24;;;;;;;10.10;9.80;;;4.50;99.90;;;;;;6286701;22;20210;-80
2022/01/28 12:40:00;;;;;;;10.10;9.80;;;4.50;99.90;;;;;;6294261;22;20206;-79
2022/01/28 12:42:32;;;;;;;9.83;9.53;;;4.60;99.90;;;;;;6290627;22;20201;-79
2022/01/28 12:45:03;;;;;;;9.70;9.40;;;4.60;99.90;;;;;;6287733;22;20200;-79
2022/01/28 12:47:35;;;;;;;9.23;8.93;;;4.60;99.90;;;;;;6287336;22;20296;-79
2022/01/28 12:50:04;;;;;;;9.40;9.10;;;4.60;99.90;;;;;;6287578;22;20201;-79
2022/01/28 12:52:33;;;;;;;9.53;9.23;;;4.60;99.90;;;;;;6286731;22;20276;-79
2022/01/28 12:55:00;;;;;;;9.57;9.27;;;4.60;99.90;;;;;;6287433;22;20198;-79
2022/01/28 12:57:28;;;;;;;9.67;9.37;;;4.70;99.90;;;;;;6288010;22;20205;-79
2022/01/28 12:59:56;;;;;;;9.50;9.20;;;4.80;99.90;;;;;;6287561;22;20194;-79
2022/01/28 13:02:26;;;;;;;9.90;9.60;;;4.90;99.90;;;;;;6287771;22;20206;-79
2022/01/28 13:05:12;;;;;;;9.90;9.60;;;5.00;99.90;;;;;;6287390;22;20280;-79
2022/01/28 13:10:29;;;;;;;10.00;9.70;;;5.00;99.90;;;;;;6287233;22;20268;-79
2022/01/28 13:13:05;;;;;;;9.70;9.40;;;4.90;99.90;;;;;;6286820;22;20193;-79
2022/01/28 13:15:33;;;;;;;9.80;9.50;;;4.90;99.90;;;;;;6286099;22;20222;-79
2022/01/28 13:18:04;;;;;;;9.60;9.30;;;4.80;99.90;;;;;;6287499;22;20202;-79
2022/01/28 13:20:34;;;;;;;9.63;9.33;;;4.90;99.90;;;;;;6286976;22;20200;-79
2022/01/28 13:23:03;;;;;;;9.60;9.30;;;4.90;99.90;;;;;;6286392;22;20193;-79
2022/01/28 13:25:31;;;;;;;9.50;9.20;;;4.90;99.90;;;;;;6287374;22;20206;-79
2022/01/28 13:28:02;;;;;;;9.80;9.50;;;4.80;99.90;;;;;;6286274;22;20213;-80
2022/01/28 13:30:37;;;;;;;9.60;9.30;;;4.80;99.90;;;;;;6286807;22;20218;-78
2022/01/28 13:33:08;;;;;;;9.67;9.37;;;4.70;99.90;;;;;;6286155;22;20190;-79
2022/01/28 13:35:37;;;;;;;9.27;8.97;;;4.70;99.90;;;;;;6287055;22;20948;-80
2022/01/28 13:38:15;;;;;;;9.50;9.20;;;4.70;99.90;;;;;;6286709;22;20189;-78
2022/01/28 13:40:43;;;;;;;9.70;9.40;;;4.70;99.90;;;;;;6285133;22;20194;-78
2022/01/28 13:43:14;;;;;;;9.87;9.57;;;4.60;99.90;;;;;;6284102;22;20193;-79
2022/01/28 13:45:50;;;;;;;9.80;9.50;;;4.60;99.90;;;;;;6283346;22;20201;-78
2022/01/28 13:48:22;;;;;;;9.80;9.50;;;4.70;99.90;;;;;;6284319;22;20193;-78
2022/01/28 13:50:53;;;;;;;9.60;9.30;;;4.80;99.90;;;;;;6284996;22;20205;-77
2022/01/28 13:56:13;;;;;;;10.30;10.00;;;4.80;99.90;;;;;;6285517;22;20255;-79
2022/01/28 13:58:48;;;;;;;9.93;9.63;;;4.80;99.90;;;;;;6284519;22;20773;-78
2022/01/28 14:01:16;;;;;;;10.50;10.20;;;4.80;99.90;;;;;;6285336;22;20256;-78
2022/01/28 14:03:57;;;;;;;10.00;9.70;;;4.80;99.90;;;;;;6285415;22;20244;-78
2022/01/28 14:06:28;;;;;;;9.93;9.63;;;4.70;99.90;;;;;;6287131;22;20209;-81
2022/01/28 14:09:07;;;;;;;9.50;9.20;;;4.70;99.90;;;;;;6286911;22;20236;-80
2022/01/28 14:11:41;;;;;;;9.63;9.33;;;4.70;99.90;;;;;;6286934;22;20209;-79
2022/01/28 14:14:23;;;;;;;9.73;9.43;;;4.80;99.90;;;;;;6286526;22;20236;-78
2022/01/28 14:16:54;;;;;;;9.47;9.17;;;4.90;99.90;;;;;;6286931;22;20237;-79
2022/01/28 14:19:24;;;;;;;9.40;9.10;;;4.90;99.90;;;;;;6287185;22;20229;-79
2022/01/28 14:21:52;;;;;;;9.80;9.50;;;4.90;99.90;;;;;;6287060;22;20193;-79
2022/01/28 14:24:22;;;;;;;9.70;9.40;;;4.90;99.90;;;;;;6286606;22;20670;-78
2022/01/28 14:26:58;;;;;;;9.67;9.37;;;5.00;99.90;;;;;;6286913;22;20205;-80
2022/01/28 14:32:14;;;;;;;9.30;9.00;;;4.90;99.90;;;;;;6271034;22;20239;-80
2022/01/28 14:34:45;;;;;;;9.43;9.13;;;4.90;99.90;;;;;;6287851;22;20225;-79
2022/01/28 14:37:13;;;;;;;9.60;9.30;;;4.80;99.90;;;;;;6287034;22;20236;-79
2022/01/28 14:39:42;;;;;;;9.40;9.10;;;4.80;99.90;;;;;;6291883;22;20257;-77
2022/01/28 14:42:12;;;;;;;9.50;9.20;;;4.70;99.90;;;;;;6290679;22;20264;-79
2022/01/28 14:44:42;;;;;;;9.50;9.20;;;4.80;99.90;;;;;;6287767;22;20186;-78
2022/01/28 14:47:11;;;;;;;9.50;9.20;;;4.70;99.90;;;;;;6288115;22;20205;-79
2022/01/28 14:49:40;;;;;;;9.63;9.33;;;4.70;99.90;;;;;;6288198;22;20275;-79
2022/01/28 14:52:15;;;;;;;9.67;9.37;;;4.80;99.90;;;;;;6287589;22;20205;-78
2022/01/28 14:54:43;;;;;;;9.77;9.47;;;4.70;99.90;;;;;;6294131;22;20189;-78
2022/01/28 14:57:12;;;;;;;9.80;9.50;;;4.70;99.90;;;;;;6291647;22;20224;-79
2022/01/28 14:59:43;;;;;;;9.73;9.43;;;4.80;99.90;;;;;;6287218;22;20202;-78
2022/01/28 15:02:13;;;;;;;9.70;9.40;;;4.80;99.90;;;;;;6286683;22;20200;-77
2022/01/28 15:04:41;;;;;;;9.80;9.50;;;4.80;99.90;;;;;;6287775;22;20220;-78
2022/01/28 15:07:10;;;;;;;9.90;9.60;;;4.80;99.90;;;;;;6286953;22;20205;-78
2022/01/28 15:09:41;;;;;;;9.77;9.47;;;4.70;99.90;;;;;;6286088;22;20198;-77
2022/01/28 15:12:10;;;;;;;9.57;9.27;;;4.70;99.90;;;;;;6286354;22;20607;-77
2022/01/28 15:14:38;;;;;;;9.93;9.63;;;4.70;99.90;;;;;;6286583;22;20682;-77
2022/01/28 15:17:06;;;;;;;9.90;9.60;;;4.70;99.90;;;;;;6287430;22;20228;-78
2022/01/28 15:19:35;;;;;;;9.93;9.63;;;4.70;99.90;;;;;;6287739;22;20201;-77
2022/01/28 15:22:02;;;;;;;10.23;9.93;;;4.70;99.90;;;;;;6284532;22;20264;-77
2022/01/28 15:24:32;;;;;;;10.10;9.80;;;4.70;99.90;;;;;;6282405;22;20205;-76
2022/01/28 15:26:59;;;;;;;9.83;9.53;;;4.70;99.90;;;;;;6284340;22;20198;-77
2022/01/28 15:29:49;;;;;;;9.90;9.60;;;4.60;99.90;;;;;;6283871;22;20224;-78
2022/01/28 15:35:29;;;;;;;9.83;9.53;;;4.70;99.90;;;;;;6285608;22;20193;-77
2022/01/28 15:37:57;;;;;;;9.50;9.20;;;4.60;99.90;;;;;;6284558;22;20201;-78
2022/01/28 15:40:26;;;;;;;9.60;9.30;;;4.60;99.90;;;;;;6285508;22;20197;-78
2022/01/28 15:43:00;;;;;;;9.70;9.40;;;4.60;99.90;;;;;;6283772;22;20296;-77
2022/01/28 15:45:31;;;;;;;9.50;9.20;;;4.60;99.90;;;;;;6284655;22;20186;-77
2022/01/28 15:47:58;;;;;;;9.50;9.20;;;4.60;99.90;;;;;;6284986;22;20185;-77
2022/01/28 15:50:28;;;;;;;9.50;9.20;;;4.60;99.90;;;;;;6284984;22;20197;-77
2022/01/28 15:52:56;;;;;;;9.67;9.37;;;4.50;99.90;;;;;;6284118;22;20198;-77
2022/01/28 15:55:25;;;;;;;9.57;9.27;;;4.50;99.90;;;;;;6291741;22;20201;-78
2022/01/28 15:57:53;;;;;;;9.50;9.20;;;4.50;99.90;;;;;;6299633;22;20240;-77
2022/01/28 16:00:21;;;;;;;9.70;9.40;;;4.50;99.90;;;;;;6296553;22;20194;-78
2022/01/28 16:02:49;;;;;;;9.50;9.20;;;4.50;99.90;;;;;;6297703;22;20213;-77
2022/01/28 16:05:17;;;;;;;9.70;9.40;;;4.40;99.90;;;;;;6309379;22;20239;-77
2022/01/28 16:07:44;;;;;;;9.63;9.33;;;4.50;99.90;;;;;;6308157;22;20201;-78
2022/01/28 16:10:18;;;;;;;9.30;9.00;;;4.50;99.90;;;;;;6307124;22;20193;-77
2022/01/28 16:13:25;;;;;;;8.90;8.70;;;4.50;99.90;;;;;;6309499;22;20169;-76
2022/01/28 16:18:40;;;;;;;9.50;9.20;;;4.50;99.90;;;;;;6310677;22;20170;-76
2022/01/28 16:21:08;;;;;;;9.30;9.00;;;4.50;99.90;;;;;;6305323;22;20197;-78
2022/01/28 16:23:35;;;;;;;8.63;8.43;;;4.40;99.90;;;;;;6295676;22;20215;-78
2022/01/28 16:26:03;;;;;;;8.60;8.40;;;4.40;99.90;;;;;;6294121;22;20205;-78
2022/01/28 16:28:32;;;;;;;8.37;8.17;;;4.40;99.90;;;;;;6305473;22;20190;-78
2022/01/28 16:31:00;;;;;;;8.27;8.07;;;4.50;99.90;;;;;;6306061;22;20232;-77
2022/01/28 16:33:30;;;;;;;8.30;8.10;;;4.50;99.90;;;;;;6306219;22;20166;-75
2022/01/28 16:35:58;;;;;;;8.37;8.17;;;4.50;99.90;;;;;;6309493;22;20205;-77
2022/01/28 16:38:26;;;;;;;8.23;8.03;;;4.50;99.90;;;;;;6307456;22;20189;-75
2022/01/28 16:40:53;;;;;;;8.37;8.17;;;4.50;99.90;;;;;;6307707;22;20189;-76
2022/01/28 16:43:23;;;;;;;8.40;8.20;;;4.50;99.90;;;;;;6306657;22;20178;-77
2022/01/28 16:45:56;;;;;;;8.73;8.53;;;4.40;99.90;;;;;;6306663;22;20201;-77
2022/01/28 16:48:24;;;;;;;8.83;8.63;;;4.40;99.90;;;;;;6306145;22;20177;-76
2022/01/28 16:50:52;;;;;;;8.60;8.40;;;4.50;99.90;;;;;;6305003;22;20213;-76
2022/01/28 16:53:22;;;;;;;8.63;8.43;;;4.40;99.90;;;;;;6304723;22;20248;-77
2022/01/28 16:55:50;;;;;;;8.70;8.50;;;4.40;99.90;;;;;;6305021;22;20202;-78
2022/01/28 16:58:18;;;;;;;8.90;8.70;;;4.40;99.90;;;;;;6299401;22;20197;-77
2022/01/28 17:00:46;;;;;;;8.63;8.43;;;4.40;99.90;;;;;;6293301;22;20236;-77
2022/01/28 17:03:16;;;;;;;8.33;8.13;;;4.40;99.90;;;;;;6289156;22;20202;-78
2022/01/28 17:05:43;;;;;;;8.50;8.30;;;4.40;99.90;;;;;;6292527;22;20217;-78
2022/01/28 17:08:11;;;;;;;8.63;8.43;;;4.30;99.90;;;;;;6288396;22;20208;-77
2022/01/28 17:10:47;;;;;;;8.53;8.33;;;4.30;99.90;;;;;;6287220;22;20264;-77
2022/01/28 17:13:15;;;;;;;8.50;8.30;;;4.30;99.90;;;;;;6289320;22;20466;-77
2022/01/28 17:15:45;;;;;;;8.50;8.30;;;4.30;99.90;;;;;;6285050;22;20205;-78
2022/01/28 17:18:14;;;;;;;8.20;8.00;;;4.30;99.90;;;;;;6286624;22;20194;-77
2022/01/28 17:20:42;;;;;;;8.50;8.30;;;4.30;99.90;;;;;;6289260;22;20201;-78
2022/01/28 17:23:10;;;;;;;8.90;8.70;;;4.30;99.90;;;;;;6285739;22;20373;-76
2022/01/28 17:25:41;;;;;;;8.73;8.53;;;4.30;99.90;;;;;;6284217;22;20189;-77
2022/01/28 17:28:08;;;;;;;8.40;8.20;;;4.30;99.90;;;;;;6284448;22;20204;-78
2022/01/28 17:30:36;;;;;;;8.70;8.50;;;4.30;99.90;;;;;;6284124;22;20201;-77
2022/01/28 17:33:04;;;;;;;8.63;8.43;;;4.30;99.90;;;;;;6284837;22;20201;-77
2022/01/28 17:35:33;;;;;;;8.50;8.30;;;4.20;99.90;;;;;;6284191;22;20202;-77
2022/01/28 17:38:01;;;;;;;8.80;8.60;;;4.20;99.90;;;;;;6284572;22;20209;-77
2022/01/28 17:40:33;;;;;;;8.70;8.50;;;4.20;99.90;;;;;;6283394;22;20260;-77
2022/01/28 17:43:01;;;;;;;8.57;8.37;;;4.20;99.90;;;;;;6284448;22;20194;-77
2022/01/28 17:45:30;;;;;;;8.60;8.40;;;4.20;99.90;;;;;;6287771;22;20204;-77
2022/01/28 17:54:46;;;;;;;8.80;8.60;;;4.20;99.90;;;;;;6315381;22;20219;-82
2022/01/28 17:57:49;;;;;;;8.73;8.53;;;4.20;99.90;;;;;;6305852;22;20205;-82
2022/01/28 18:00:31;;;;;;;8.80;8.60;;;4.20;99.90;;;;;;6274972;22;20205;-81